Time;durP1;ratioP1;P1;durP2;ratioP2;P2;SDS_P1;SDS_P2;PMS_P1;PMS_P2;Temp;Humidity;BMP_temperature;BMP_pressure;BME280_temperature;BME280_humidity;BME280_pressure;Samples;Min_cycle;Max_cycle;Signal;HPM_P1;HPM_P2
2023/11/11 00:00:17;;;;;;;7.70;7.60;;;7.70;99.90;;;;;;5017415;28;20488;-78
2023/11/11 00:02:47;;;;;;;7.60;7.40;;;7.60;43.90;;;;;;5050171;28;20888;-79
2023/11/11 00:05:16;;;;;;;7.00;6.80;;;7.60;99.90;;;;;;5016142;28;20453;-82
2023/11/11 00:07:46;;;;;;;7.40;7.30;;;7.70;1.00;;;;;;5016047;28;20450;-80
2023/11/11 00:10:14;;;;;;;7.20;6.90;;;7.60;99.90;;;;;;5049801;28;21257;-79
2023/11/11 00:12:43;;;;;;;6.80;6.70;;;7.60;1.00;;;;;;5021391;28;20472;-81
2023/11/11 00:15:11;;;;;;;7.30;7.20;;;7.60;99.90;;;;;;5015771;28;20496;-80
2023/11/11 00:17:40;;;;;;;7.37;7.17;;;7.60;1.00;;;;;;5018370;28;20829;-78
2023/11/11 00:20:12;;;;;;;7.90;7.43;;;7.60;99.90;;;;;;5019829;28;20985;-76
2023/11/11 00:22:43;;;;;;;7.63;7.43;;;7.60;1.00;;;;;;5020659;28;20917;-79
2023/11/11 00:25:12;;;;;;;8.07;7.87;;;7.50;99.90;;;;;;5016463;28;21157;-77
2023/11/11 00:27:42;;;;;;;7.83;7.63;;;7.50;99.90;;;;;;5022334;28;21571;-79
2023/11/11 00:30:13;;;;;;;7.80;7.60;;;7.50;1.00;;;;;;5019116;28;20480;-79
2023/11/11 00:32:48;;;;;;;8.27;8.07;;;7.60;1.00;;;;;;5018516;28;20423;-82
2023/11/11 00:35:18;;;;;;;8.00;7.90;;;7.60;99.90;;;;;;5016711;28;20301;-78
2023/11/11 00:37:47;;;;;;;8.40;8.10;;;7.60;99.90;;;;;;5019717;28;21009;-80
2023/11/11 00:40:15;;;;;;;8.03;7.93;;;7.60;99.90;;;;;;5020919;28;20457;-83
2023/11/11 00:42:43;;;;;;;7.90;7.80;;;7.60;59.40;;;;;;5019806;28;20476;-83
2023/11/11 00:45:13;;;;;;;8.00;7.73;;;7.60;99.90;;;;;;5022985;28;21118;-80
2023/11/11 00:47:42;;;;;;;7.90;7.50;;;7.60;1.00;;;;;;5023865;28;20539;-81
2023/11/11 00:50:10;;;;;;;8.10;7.80;;;7.60;1.00;;;;;;5022545;28;20955;-84
2023/11/11 00:52:40;;;;;;;7.50;7.30;;;7.60;99.90;;;;;;5021890;28;20480;-81
2023/11/11 00:55:09;;;;;;;8.00;7.47;;;7.60;99.90;;;;;;5026414;28;20462;-82
2023/11/11 00:57:39;;;;;;;8.10;7.90;;;7.60;99.90;;;;;;5027669;28;20452;-78
2023/11/11 01:00:10;;;;;;;8.23;8.03;;;7.70;99.90;;;;;;5022838;28;20457;-82
2023/11/11 01:02:40;;;;;;;8.00;7.80;;;7.70;1.00;;;;;;5022153;28;20482;-80
2023/11/11 01:05:11;;;;;;;8.50;8.10;;;7.80;99.90;;;;;;5019282;28;20464;-81
2023/11/11 01:07:41;;;;;;;7.47;7.37;;;7.80;1.00;;;;;;5021419;28;20467;-79
2023/11/11 01:10:11;;;;;;;8.27;8.07;;;7.80;1.00;;;;;;5017809;28;20464;-80
2023/11/11 01:12:39;;;;;;;7.93;7.80;;;7.90;99.90;;;;;;5019587;28;20477;-80
2023/11/11 01:15:11;;;;;;;7.80;7.70;;;7.90;99.90;;;;;;5022087;28;20480;-81
2023/11/11 01:17:40;;;;;;;7.63;7.53;;;7.90;1.00;;;;;;5022338;28;20523;-80
2023/11/11 01:20:12;;;;;;;7.63;7.53;;;8.00;1.00;;;;;;5020592;28;21092;-82
2023/11/11 01:22:41;;;;;;;8.13;8.03;;;8.00;47.80;;;;;;5016569;28;20481;-79
2023/11/11 01:25:12;;;;;;;8.00;7.90;;;8.00;99.90;;;;;;5015926;28;20437;-81
2023/11/11 01:27:40;;;;;;;8.50;8.30;;;8.10;1.00;;;;;;5016579;28;20536;-80
2023/11/11 01:30:09;;;;;;;8.40;8.30;;;8.10;27.00;;;;;;5022131;28;20451;-82
2023/11/11 01:32:38;;;;;;;8.50;8.40;;;8.00;1.00;;;;;;5018535;28;21236;-79
2023/11/11 01:35:07;;;;;;;8.00;7.90;;;8.00;16.60;;;;;;5016076;28;20469;-79
2023/11/11 01:37:35;;;;;;;8.30;8.20;;;8.10;1.00;;;;;;5018186;28;20453;-79
2023/11/11 01:40:06;;;;;;;8.00;7.90;;;8.10;1.00;;;;;;5017992;28;20561;-78
2023/11/11 01:42:35;;;;;;;8.10;7.90;;;8.10;1.00;;;;;;5013740;28;20594;-80
2023/11/11 01:45:04;;;;;;;7.73;7.63;;;8.20;99.90;;;;;;5015795;28;20453;-79
2023/11/11 01:47:33;;;;;;;7.33;7.23;;;8.10;99.90;;;;;;5017129;28;20453;-79
2023/11/11 01:50:02;;;;;;;7.60;7.50;;;8.10;99.90;;;;;;5015511;28;20458;-78
2023/11/11 01:52:30;;;;;;;7.80;7.70;;;8.20;99.90;;;;;;5014782;28;21036;-82
2023/11/11 01:55:01;;;;;;;7.73;7.63;;;8.20;99.90;;;;;;5016894;28;20585;-80
2023/11/11 01:57:31;;;;;;;7.53;7.43;;;8.10;99.90;;;;;;5016701;28;20554;-78
2023/11/11 02:00:05;;;;;;;7.97;7.87;;;8.10;99.90;;;;;;5010953;28;20497;-80
2023/11/11 02:02:34;;;;;;;8.17;7.87;;;8.10;99.90;;;;;;5022014;28;20513;-79
2023/11/11 02:05:03;;;;;;;8.30;8.10;;;8.10;99.90;;;;;;5023394;28;20544;-80
2023/11/11 02:07:31;;;;;;;8.40;8.20;;;8.20;99.90;;;;;;5018838;28;20453;-82
2023/11/11 02:10:02;;;;;;;8.30;8.10;;;8.20;99.90;;;;;;5025539;28;20962;-79
2023/11/11 02:12:32;;;;;;;8.40;8.10;;;8.20;97.60;;;;;;5023272;28;20488;-79
2023/11/11 02:15:02;;;;;;;7.50;7.40;;;8.20;99.90;;;;;;5016920;28;20569;-77
2023/11/11 02:17:30;;;;;;;7.40;7.30;;;8.20;99.90;;;;;;5018405;28;20572;-80
2023/11/11 02:20:00;;;;;;;7.80;7.70;;;8.20;99.90;;;;;;5019991;28;20547;-81
2023/11/11 02:22:28;;;;;;;7.97;7.77;;;8.30;99.90;;;;;;5023728;28;21348;-79
2023/11/11 02:24:59;;;;;;;8.20;8.00;;;8.30;99.90;;;;;;5021132;28;20465;-79
2023/11/11 02:27:31;;;;;;;7.80;7.67;;;8.20;99.90;;;;;;5020807;28;20536;-80
2023/11/11 02:30:02;;;;;;;7.63;7.53;;;8.20;99.90;;;;;;5022728;28;20878;-83
2023/11/11 02:32:30;;;;;;;7.37;7.27;;;8.20;99.90;;;;;;5017815;28;20461;-78
2023/11/11 02:34:59;;;;;;;7.80;7.60;;;8.20;1.00;;;;;;5021742;28;20861;-79
2023/11/11 02:37:27;;;;;;;7.70;7.60;;;8.30;99.90;;;;;;5025593;28;20449;-80
2023/11/11 02:39:55;;;;;;;8.00;7.80;;;8.20;1.00;;;;;;5021326;28;20522;-81
2023/11/11 02:42:24;;;;;;;8.10;8.00;;;8.30;1.00;;;;;;5020841;28;20829;-79
2023/11/11 02:44:52;;;;;;;7.87;7.70;;;8.30;1.00;;;;;;5023908;28;20453;-82
2023/11/11 02:47:21;;;;;;;8.03;7.93;;;8.30;1.00;;;;;;5026566;28;20449;-79
2023/11/11 02:49:49;;;;;;;8.00;7.90;;;8.30;1.00;;;;;;5021385;28;20453;-78
2023/11/11 02:52:17;;;;;;;7.90;7.80;;;8.30;1.00;;;;;;5023174;28;20537;-80
2023/11/11 02:54:46;;;;;;;8.30;8.10;;;8.30;1.00;;;;;;5017114;28;20449;-80
2023/11/11 02:57:14;;;;;;;8.20;8.10;;;8.20;99.90;;;;;;5019341;28;20457;-79
2023/11/11 02:59:44;;;;;;;8.47;8.27;;;8.20;99.90;;;;;;5018777;28;20457;-81
2023/11/11 03:02:13;;;;;;;8.40;8.20;;;8.30;99.90;;;;;;5019017;28;20572;-80
2023/11/11 03:04:41;;;;;;;8.10;8.00;;;8.20;99.90;;;;;;5021200;28;20446;-83
2023/11/11 03:07:10;;;;;;;8.30;8.20;;;8.20;99.90;;;;;;5019009;28;20462;-83
2023/11/11 03:09:41;;;;;;;8.40;8.30;;;8.20;99.90;;;;;;5019572;28;21012;-81
2023/11/11 03:12:11;;;;;;;8.50;8.20;;;8.20;99.90;;;;;;5018357;28;20831;-80
2023/11/11 03:14:40;;;;;;;8.43;8.23;;;8.30;99.90;;;;;;5050492;28;20441;-80
2023/11/11 03:17:10;;;;;;;8.30;8.20;;;8.20;99.90;;;;;;5053541;28;20477;-81
2023/11/11 03:19:40;;;;;;;8.07;7.97;;;8.20;99.90;;;;;;5021076;28;20457;-80
2023/11/11 03:22:08;;;;;;;8.43;8.27;;;8.30;99.90;;;;;;5020107;28;20500;-81
2023/11/11 03:24:36;;;;;;;8.60;8.40;;;8.30;99.90;;;;;;5017960;28;20565;-78
2023/11/11 03:27:05;;;;;;;8.40;8.20;;;8.30;99.90;;;;;;5019052;28;20461;-80
2023/11/11 03:29:33;;;;;;;8.47;8.27;;;8.30;69.90;;;;;;5016694;28;20504;-80
2023/11/11 03:32:01;;;;;;;8.17;8.07;;;8.30;22.70;;;;;;5016835;28;20466;-83
2023/11/11 03:34:31;;;;;;;8.60;8.40;;;8.30;1.00;;;;;;5018692;28;20479;-80
2023/11/11 03:36:59;;;;;;;8.33;8.13;;;8.30;1.00;;;;;;5017567;28;20473;-80
2023/11/11 03:39:27;;;;;;;8.50;8.40;;;8.30;1.00;;;;;;5019746;28;20460;-79
2023/11/11 03:41:55;;;;;;;8.70;8.43;;;8.30;1.00;;;;;;5018430;28;20461;-81
2023/11/11 03:44:23;;;;;;;8.20;8.10;;;8.30;1.00;;;;;;5016772;28;20491;-81
2023/11/11 03:46:51;;;;;;;8.70;8.40;;;8.30;1.00;;;;;;5017910;28;20495;-82
2023/11/11 03:49:20;;;;;;;8.63;8.20;;;8.30;1.00;;;;;;5012356;28;20955;-82
2023/11/11 03:51:49;;;;;;;8.10;7.90;;;8.30;1.00;;;;;;5018149;28;20473;-79
2023/11/11 03:54:18;;;;;;;8.20;8.00;;;8.30;1.00;;;;;;5014453;28;20537;-82
2023/11/11 03:56:48;;;;;;;8.03;7.83;;;8.30;4.00;;;;;;5014899;28;20466;-81
2023/11/11 03:59:17;;;;;;;7.80;7.70;;;8.40;20.40;;;;;;5013756;28;20464;-80
2023/11/11 04:01:45;;;;;;;7.83;7.60;;;8.40;16.50;;;;;;5016143;28;20465;-80
2023/11/11 04:04:13;;;;;;;8.07;7.97;;;8.30;12.30;;;;;;5017956;28;20471;-81
2023/11/11 04:06:41;;;;;;;8.10;8.00;;;8.30;28.20;;;;;;5044728;28;20462;-80
2023/11/11 04:09:12;;;;;;;8.20;8.10;;;8.30;76.40;;;;;;5019518;28;20464;-81
2023/11/11 04:11:41;;;;;;;8.20;8.10;;;8.30;93.60;;;;;;5021955;28;20456;-78
2023/11/11 04:14:10;;;;;;;8.30;8.20;;;8.30;52.50;;;;;;5019321;28;20477;-83
2023/11/11 04:16:38;;;;;;;8.33;8.23;;;8.30;80.00;;;;;;5019282;28;20473;-79
2023/11/11 04:19:08;;;;;;;8.50;8.30;;;8.30;78.10;;;;;;5019399;28;20493;-82
2023/11/11 04:21:36;;;;;;;8.60;8.50;;;8.30;97.20;;;;;;5019563;28;20560;-79
2023/11/11 04:24:05;;;;;;;8.63;8.43;;;8.30;60.40;;;;;;5022112;28;20531;-81
2023/11/11 04:26:35;;;;;;;8.50;8.40;;;8.30;54.10;;;;;;5051760;28;20539;-83
2023/11/11 04:29:04;;;;;;;8.70;8.50;;;8.20;27.10;;;;;;5017597;28;20523;-81
2023/11/11 04:31:32;;;;;;;8.30;8.20;;;8.30;16.40;;;;;;5022363;28;20460;-80
2023/11/11 04:34:00;;;;;;;8.40;8.20;;;8.30;31.20;;;;;;5022538;28;20491;-80
2023/11/11 04:36:28;;;;;;;8.70;8.50;;;8.30;16.40;;;;;;5023773;28;20535;-80
2023/11/11 04:38:57;;;;;;;8.40;8.30;;;8.30;9.80;;;;;;5024139;28;21041;-80
2023/11/11 04:41:27;;;;;;;8.40;8.30;;;8.30;1.00;;;;;;5022381;28;20851;-80
2023/11/11 04:43:56;;;;;;;8.30;8.07;;;8.30;1.00;;;;;;5023174;28;20718;-80
2023/11/11 04:46:25;;;;;;;8.00;7.90;;;8.30;18.20;;;;;;5017588;28;21334;-82
2023/11/11 04:48:53;;;;;;;8.40;8.20;;;8.20;1.10;;;;;;5019797;28;20510;-81
2023/11/11 04:51:22;;;;;;;8.43;8.23;;;8.30;19.50;;;;;;5022270;28;21164;-81
2023/11/11 04:53:50;;;;;;;8.40;8.30;;;8.20;1.00;;;;;;5022439;28;20494;-79
2023/11/11 04:56:19;;;;;;;8.37;8.27;;;8.20;1.00;;;;;;5017424;28;20480;-83
2023/11/11 04:58:53;;;;;;;8.70;8.50;;;8.30;1.00;;;;;;5021896;28;20476;-81
2023/11/11 05:01:24;;;;;;;8.87;8.57;;;8.30;1.00;;;;;;5019662;28;20448;-80
2023/11/11 05:03:53;;;;;;;8.70;8.60;;;8.20;1.00;;;;;;5021718;28;20480;-83
2023/11/11 05:06:21;;;;;;;9.20;9.00;;;8.20;1.00;;;;;;5023560;28;20461;-80
2023/11/11 05:08:50;;;;;;;9.33;9.03;;;8.20;1.00;;;;;;5023379;28;20456;-79
2023/11/11 05:11:19;;;;;;;9.20;9.00;;;8.20;1.00;;;;;;5022691;28;20529;-81
2023/11/11 05:13:47;;;;;;;9.97;9.33;;;8.30;8.00;;;;;;5021815;28;20496;-80
2023/11/11 05:16:24;;;;;;;9.03;8.83;;;8.20;1.00;;;;;;5021662;28;20483;-79
2023/11/11 05:18:54;;;;;;;9.30;9.10;;;8.30;13.70;;;;;;5018108;28;20464;-81
2023/11/11 05:21:23;;;;;;;8.97;8.67;;;8.30;10.30;;;;;;5016314;28;20450;-82
2023/11/11 05:23:51;;;;;;;9.40;9.10;;;8.30;44.40;;;;;;5018847;28;20471;-79
2023/11/11 05:26:19;;;;;;;9.30;9.10;;;8.30;95.80;;;;;;5020653;28;20567;-80
2023/11/11 05:28:47;;;;;;;9.63;9.10;;;8.30;81.80;;;;;;5022253;28;20460;-79
2023/11/11 05:31:16;;;;;;;9.20;9.00;;;8.30;99.90;;;;;;5023735;28;20452;-83
2023/11/11 05:33:44;;;;;;;9.63;9.23;;;8.30;93.40;;;;;;5019222;28;20482;-81
2023/11/11 05:36:14;;;;;;;9.13;8.93;;;8.20;78.20;;;;;;5024181;28;20540;-79
2023/11/11 05:38:42;;;;;;;9.67;9.37;;;8.30;99.90;;;;;;5022468;28;20456;-81
2023/11/11 05:41:10;;;;;;;9.47;9.07;;;8.30;94.70;;;;;;5025271;28;20894;-81
2023/11/11 05:43:39;;;;;;;9.13;8.83;;;8.30;68.90;;;;;;5020874;28;20489;-81
2023/11/11 05:46:08;;;;;;;8.90;8.60;;;8.20;88.40;;;;;;5023353;28;20489;-81
2023/11/11 05:48:39;;;;;;;9.10;8.90;;;8.30;90.20;;;;;;5023165;28;20785;-80
2023/11/11 05:51:08;;;;;;;9.20;9.00;;;8.30;96.70;;;;;;5024160;28;20461;-82
2023/11/11 05:53:38;;;;;;;9.23;9.03;;;8.20;99.90;;;;;;5022513;28;20466;-79
2023/11/11 05:56:08;;;;;;;9.60;9.30;;;8.20;99.90;;;;;;5022628;28;20468;-82
2023/11/11 05:58:36;;;;;;;10.00;9.60;;;8.20;99.90;;;;;;5027576;28;20477;-81
2023/11/11 06:01:05;;;;;;;9.80;9.60;;;8.10;99.90;;;;;;5024993;28;21033;-78
2023/11/11 06:03:34;;;;;;;8.90;8.70;;;8.10;99.90;;;;;;5025973;28;20513;-79
2023/11/11 06:06:03;;;;;;;9.17;8.97;;;8.10;92.20;;;;;;5023481;28;20561;-82
2023/11/11 06:08:31;;;;;;;9.00;8.70;;;8.00;99.90;;;;;;5024916;28;20450;-80
2023/11/11 06:11:02;;;;;;;9.03;8.83;;;8.10;86.50;;;;;;5021931;28;20839;-80
2023/11/11 06:13:30;;;;;;;9.40;9.13;;;8.10;99.90;;;;;;5027060;28;20472;-82
2023/11/11 06:15:59;;;;;;;9.10;8.90;;;8.10;48.90;;;;;;5024626;28;20477;-83
2023/11/11 06:18:28;;;;;;;9.63;9.33;;;8.10;1.00;;;;;;5024947;28;20485;-80
2023/11/11 06:20:56;;;;;;;9.53;9.33;;;8.10;1.00;;;;;;5022641;28;20536;-80
2023/11/11 06:23:24;;;;;;;9.90;9.40;;;8.10;23.20;;;;;;5020165;28;20568;-82
2023/11/11 06:25:55;;;;;;;9.63;9.23;;;8.10;3.60;;;;;;5019825;28;20472;-80
2023/11/11 06:28:25;;;;;;;9.33;9.03;;;8.10;1.00;;;;;;5022976;28;20471;-83
2023/11/11 06:30:53;;;;;;;9.23;8.87;;;8.10;1.00;;;;;;5022096;28;20450;-79
2023/11/11 06:33:21;;;;;;;8.33;8.23;;;8.10;1.00;;;;;;5021085;28;20465;-79
2023/11/11 06:35:50;;;;;;;8.60;8.50;;;8.10;1.00;;;;;;5017019;28;20492;-83
2023/11/11 06:38:18;;;;;;;8.77;8.57;;;8.10;1.00;;;;;;5021024;28;20472;-78
2023/11/11 06:40:47;;;;;;;9.00;8.50;;;8.00;1.00;;;;;;5020626;28;20693;-80
2023/11/11 06:43:15;;;;;;;9.50;9.20;;;8.00;1.00;;;;;;5020367;28;20497;-83
2023/11/11 06:45:45;;;;;;;8.70;8.30;;;8.10;1.00;;;;;;5018925;28;20543;-78
2023/11/11 06:48:16;;;;;;;8.40;8.20;;;8.00;1.00;;;;;;5017122;28;20445;-80
2023/11/11 06:50:44;;;;;;;8.50;8.30;;;8.00;1.00;;;;;;5022115;28;20461;-78
2023/11/11 06:53:12;;;;;;;8.50;8.30;;;8.00;1.00;;;;;;5020387;28;21009;-82
2023/11/11 06:55:41;;;;;;;8.13;8.00;;;8.00;1.00;;;;;;5018816;28;20479;-80
2023/11/11 06:58:09;;;;;;;8.37;8.27;;;7.90;1.00;;;;;;5019922;28;21387;-80
2023/11/11 07:00:38;;;;;;;8.33;8.13;;;7.80;1.00;;;;;;5020808;28;20454;-82
2023/11/11 07:03:08;;;;;;;7.80;7.70;;;7.80;1.00;;;;;;5016494;28;20564;-80
2023/11/11 07:05:37;;;;;;;7.87;7.67;;;7.80;1.00;;;;;;5017075;28;20469;-80
2023/11/11 07:08:05;;;;;;;8.03;7.83;;;7.70;1.00;;;;;;5017775;28;20462;-80
2023/11/11 07:10:34;;;;;;;7.80;7.70;;;7.80;1.00;;;;;;5020488;28;20453;-82
2023/11/11 07:13:03;;;;;;;8.10;7.90;;;7.80;1.00;;;;;;5020697;28;20474;-80
2023/11/11 07:15:31;;;;;;;8.40;8.07;;;7.80;1.00;;;;;;5017622;28;20440;-79
2023/11/11 07:17:59;;;;;;;7.63;7.30;;;7.80;1.00;;;;;;5017259;28;20556;-79
2023/11/11 07:20:29;;;;;;;7.87;7.67;;;7.90;1.00;;;;;;5015479;28;21053;-78
2023/11/11 07:22:59;;;;;;;8.03;7.73;;;7.80;1.00;;;;;;5013785;28;20870;-78
2023/11/11 07:25:27;;;;;;;7.50;7.40;;;7.80;1.00;;;;;;5017488;28;20461;-78
2023/11/11 07:27:55;;;;;;;8.40;8.00;;;7.90;1.00;;;;;;5015279;28;21088;-78
2023/11/11 07:30:23;;;;;;;7.87;7.70;;;7.90;1.00;;;;;;5016045;28;20465;-80
2023/11/11 07:32:52;;;;;;;7.83;7.63;;;7.80;1.00;;;;;;5016896;28;20469;-79
2023/11/11 07:35:30;;;;;;;7.80;7.50;;;7.90;1.00;;;;;;5015542;28;20448;-80
2023/11/11 07:38:00;;;;;;;7.57;7.47;;;7.90;1.00;;;;;;5019996;28;20469;-79
2023/11/11 07:40:29;;;;;;;8.10;7.97;;;7.80;1.00;;;;;;5017092;28;20462;-79
2023/11/11 07:42:57;;;;;;;8.67;8.30;;;7.80;1.00;;;;;;5017148;28;20486;-78
2023/11/11 07:45:26;;;;;;;7.43;7.23;;;7.90;1.00;;;;;;5016838;28;21093;-78
2023/11/11 07:47:55;;;;;;;8.30;8.10;;;7.90;1.00;;;;;;5014487;28;20453;-78
2023/11/11 07:50:25;;;;;;;9.63;8.90;;;7.80;1.00;;;;;;5015832;28;20532;-80
2023/11/11 07:52:55;;;;;;;7.43;7.33;;;7.90;1.00;;;;;;5014619;28;20755;-79
2023/11/11 07:55:24;;;;;;;9.07;8.67;;;7.90;1.00;;;;;;5015189;28;20492;-78
2023/11/11 07:57:52;;;;;;;8.70;8.33;;;7.90;1.00;;;;;;5014120;28;20484;-81
2023/11/11 08:00:24;;;;;;;8.17;7.87;;;7.90;1.00;;;;;;5017965;28;20449;-82
2023/11/11 08:02:53;;;;;;;7.80;7.60;;;8.00;1.00;;;;;;5014955;28;20472;-80
2023/11/11 08:05:23;;;;;;;8.03;7.73;;;8.10;1.00;;;;;;5015406;28;21201;-81
2023/11/11 08:07:54;;;;;;;8.10;7.70;;;8.10;1.00;;;;;;5016120;28;20460;-81
2023/11/11 08:10:29;;;;;;;8.27;8.03;;;8.10;1.00;;;;;;5015029;28;20458;-78
2023/11/11 08:12:57;;;;;;;8.40;8.00;;;8.10;1.00;;;;;;5015216;28;21166;-81
2023/11/11 08:15:25;;;;;;;8.30;8.10;;;8.00;1.00;;;;;;5013831;28;20460;-79
2023/11/11 08:17:54;;;;;;;8.00;7.80;;;8.10;1.00;;;;;;5012979;28;20462;-77
2023/11/11 08:20:23;;;;;;;8.50;8.20;;;8.00;1.00;;;;;;5014220;28;21064;-79
2023/11/11 08:22:51;;;;;;;7.87;7.67;;;8.00;1.00;;;;;;5014814;28;20477;-78
2023/11/11 08:25:22;;;;;;;8.67;8.37;;;8.00;1.00;;;;;;5015605;28;20966;-80
2023/11/11 08:27:51;;;;;;;8.50;8.20;;;8.00;1.00;;;;;;5018100;28;20485;-80
2023/11/11 08:30:21;;;;;;;8.10;7.80;;;8.00;1.00;;;;;;5013195;28;20453;-78
2023/11/11 08:32:50;;;;;;;8.00;7.80;;;8.00;1.00;;;;;;5013909;28;20565;-78
2023/11/11 08:35:19;;;;;;;8.10;7.90;;;8.00;1.00;;;;;;5016298;28;20201;-80
2023/11/11 08:37:47;;;;;;;9.40;8.87;;;8.10;1.00;;;;;;5007917;28;20983;-80
2023/11/11 08:40:17;;;;;;;8.43;7.97;;;8.10;1.00;;;;;;5014970;28;20735;-78
2023/11/11 08:42:47;;;;;;;8.17;7.97;;;8.00;1.00;;;;;;5012497;28;21216;-79
2023/11/11 08:45:15;;;;;;;8.20;7.90;;;8.10;1.00;;;;;;5016853;28;20454;-79
2023/11/11 08:47:45;;;;;;;8.40;8.10;;;8.10;1.00;;;;;;5017163;28;20454;-80
2023/11/11 08:50:13;;;;;;;8.37;8.07;;;8.10;1.00;;;;;;5018042;28;20544;-78
2023/11/11 08:52:42;;;;;;;7.97;7.67;;;8.20;1.00;;;;;;5017583;28;20484;-79
2023/11/11 08:55:11;;;;;;;8.37;8.07;;;8.20;1.00;;;;;;5015955;28;20520;-79
2023/11/11 08:57:40;;;;;;;7.97;7.73;;;8.20;1.00;;;;;;5013176;28;20966;-80
2023/11/11 09:00:12;;;;;;;8.77;8.57;;;8.20;1.00;;;;;;5015892;28;20514;-79
2023/11/11 09:02:40;;;;;;;8.57;8.17;;;8.20;1.00;;;;;;5016768;28;20475;-81
2023/11/11 09:05:09;;;;;;;7.70;7.50;;;8.20;1.00;;;;;;5015395;28;20493;-77
2023/11/11 09:07:38;;;;;;;7.60;7.40;;;8.20;1.00;;;;;;5017089;28;20504;-79
2023/11/11 09:10:07;;;;;;;7.27;7.17;;;8.20;1.00;;;;;;5019120;28;20469;-79
2023/11/11 09:12:37;;;;;;;7.80;7.60;;;8.20;1.00;;;;;;5017722;28;20464;-79
2023/11/11 09:15:06;;;;;;;7.43;7.27;;;8.20;1.00;;;;;;5019204;28;20988;-79
2023/11/11 09:17:36;;;;;;;8.57;8.27;;;8.20;1.00;;;;;;5018791;28;20449;-77
2023/11/11 09:20:07;;;;;;;7.53;7.33;;;8.20;1.00;;;;;;5020520;28;20472;-81
2023/11/11 09:22:36;;;;;;;7.30;7.10;;;8.20;1.00;;;;;;5019764;28;20463;-78
2023/11/11 09:25:06;;;;;;;6.90;6.60;;;8.20;1.00;;;;;;5019760;28;20462;-78
2023/11/11 09:27:34;;;;;;;6.90;6.70;;;8.10;1.00;;;;;;5013865;28;20552;-79
2023/11/11 09:30:05;;;;;;;6.60;6.50;;;8.00;1.00;;;;;;5012087;28;20492;-78
2023/11/11 09:32:34;;;;;;;6.70;6.50;;;8.00;1.00;;;;;;5012902;28;20466;-79
2023/11/11 09:35:04;;;;;;;7.40;7.10;;;8.00;1.00;;;;;;5012591;28;20460;-79
2023/11/11 09:37:32;;;;;;;7.70;7.50;;;8.40;99.90;;;;;;5013496;28;20552;-78
2023/11/11 09:40:03;;;;;;;8.70;8.40;;;9.80;1.00;;;;;;5014236;28;20483;-79
2023/11/11 09:42:31;;;;;;;8.40;8.20;;;11.10;1.00;;;;;;5015946;28;20461;-79
2023/11/11 09:45:02;;;;;;;7.87;7.67;;;11.40;99.90;;;;;;5017011;28;20484;-78
2023/11/11 09:47:35;;;;;;;8.10;7.90;;;11.70;99.90;;;;;;5016736;28;20453;-78
2023/11/11 09:50:06;;;;;;;8.10;7.90;;;12.10;99.90;;;;;;5018468;28;20449;-78
2023/11/11 09:52:35;;;;;;;10.73;10.23;;;12.30;99.90;;;;;;5014958;28;20818;-80
2023/11/11 09:55:04;;;;;;;8.47;8.27;;;12.60;99.90;;;;;;5019782;28;20468;-79
2023/11/11 09:57:34;;;;;;;8.60;8.50;;;14.20;99.90;;;;;;5016952;28;20465;-79
2023/11/11 10:00:05;;;;;;;8.37;8.20;;;15.50;99.90;;;;;;5015590;28;20486;-79
2023/11/11 10:02:35;;;;;;;8.40;8.20;;;16.80;99.90;;;;;;5018917;28;21030;-79
2023/11/11 10:05:04;;;;;;;8.30;8.00;;;18.00;99.90;;;;;;5018829;28;20467;-78
2023/11/11 10:07:33;;;;;;;7.73;7.63;;;17.20;99.90;;;;;;5018487;28;20457;-80
2023/11/11 10:10:01;;;;;;;9.40;9.10;;;15.70;99.90;;;;;;5018616;28;20887;-78
2023/11/11 10:12:31;;;;;;;7.77;7.57;;;15.90;99.90;;;;;;5020612;28;20449;-81
2023/11/11 10:15:02;;;;;;;7.90;7.70;;;15.60;99.90;;;;;;5018349;28;20933;-80
2023/11/11 10:17:30;;;;;;;7.90;7.70;;;14.70;99.90;;;;;;5015913;28;20456;-78
2023/11/11 10:20:02;;;;;;;7.87;7.67;;;13.50;99.90;;;;;;5016330;28;20477;-81
2023/11/11 10:22:30;;;;;;;7.43;7.33;;;12.80;99.90;;;;;;5020662;28;20449;-81
2023/11/11 10:24:58;;;;;;;8.17;7.97;;;12.00;99.90;;;;;;5021704;28;20454;-78
2023/11/11 10:27:30;;;;;;;7.70;7.40;;;11.40;99.90;;;;;;5016503;28;20466;-79
2023/11/11 10:30:00;;;;;;;8.20;7.90;;;11.00;99.90;;;;;;5020056;28;20450;-78
2023/11/11 10:32:29;;;;;;;8.00;7.70;;;10.70;99.90;;;;;;5018500;28;20522;-80
2023/11/11 10:34:59;;;;;;;7.20;7.00;;;10.60;99.90;;;;;;5021094;28;20457;-80
2023/11/11 10:37:29;;;;;;;7.73;7.53;;;10.40;99.90;;;;;;5013387;28;20535;-77
2023/11/11 10:39:57;;;;;;;7.07;6.77;;;10.30;99.90;;;;;;5014786;28;20481;-79
2023/11/11 10:42:27;;;;;;;6.80;6.60;;;11.30;99.90;;;;;;5015754;28;20998;-80
2023/11/11 10:44:55;;;;;;;7.17;6.93;;;11.00;99.90;;;;;;5020260;28;21157;-78
2023/11/11 10:47:24;;;;;;;7.23;6.93;;;10.80;99.90;;;;;;5017658;28;20549;-79
2023/11/11 10:49:53;;;;;;;7.13;7.00;;;10.80;99.90;;;;;;5016747;28;20457;-80
2023/11/11 10:52:25;;;;;;;9.03;7.63;;;11.30;99.90;;;;;;5015253;28;20450;-80
2023/11/11 10:54:56;;;;;;;7.10;6.90;;;11.80;99.90;;;;;;5018447;28;20485;-78
2023/11/11 10:57:25;;;;;;;7.50;7.30;;;11.60;99.90;;;;;;5046532;28;20967;-82
2023/11/11 10:59:53;;;;;;;7.30;7.10;;;11.90;99.90;;;;;;5016304;28;20473;-79
2023/11/11 11:02:23;;;;;;;7.03;6.83;;;11.60;99.90;;;;;;5018147;28;21092;-81
2023/11/11 11:04:55;;;;;;;7.20;6.90;;;11.30;99.90;;;;;;5017344;28;20457;-81
2023/11/11 11:07:30;;;;;;;6.97;6.67;;;11.10;99.90;;;;;;5018887;28;20466;-81
2023/11/11 11:10:04;;;;;;;6.27;6.10;;;10.70;99.90;;;;;;5018039;28;20456;-80
2023/11/11 11:12:39;;;;;;;7.40;7.20;;;10.60;99.90;;;;;;5019778;28;20460;-80
2023/11/11 11:15:13;;;;;;;7.33;7.03;;;10.60;99.90;;;;;;5016760;28;20531;-79
2023/11/11 11:17:43;;;;;;;6.30;6.10;;;10.70;99.90;;;;;;5018580;28;21079;-81
2023/11/11 11:20:14;;;;;;;5.93;5.73;;;10.60;99.90;;;;;;5018984;28;20475;-81
2023/11/11 11:22:46;;;;;;;6.00;5.80;;;10.60;99.90;;;;;;5015560;28;20450;-79
2023/11/11 11:25:32;;;;;;;6.53;6.33;;;10.40;99.90;;;;;;5043761;28;20726;-80
2023/11/11 11:28:18;;;;;;;6.10;5.70;;;10.60;99.90;;;;;;5016936;28;20465;-79
2023/11/11 11:30:49;;;;;;;5.60;5.50;;;10.70;99.90;;;;;;5014110;28;20469;-81
2023/11/11 11:33:18;;;;;;;5.80;5.60;;;10.80;99.90;;;;;;5013428;28;20485;-79
2023/11/11 11:35:48;;;;;;;5.90;5.70;;;10.80;99.90;;;;;;5016045;28;20453;-80
2023/11/11 11:38:29;;;;;;;5.63;5.53;;;10.80;99.90;;;;;;5017371;28;20434;-79
2023/11/11 11:41:03;;;;;;;5.93;5.80;;;10.80;99.90;;;;;;5018294;28;20483;-80
2023/11/11 11:43:34;;;;;;;6.70;6.50;;;11.00;99.90;;;;;;5016174;28;20462;-80
2023/11/11 11:46:03;;;;;;;5.47;5.27;;;11.20;99.90;;;;;;5016326;28;20520;-79
2023/11/11 11:48:33;;;;;;;5.00;4.90;;;11.30;99.90;;;;;;5015956;28;20457;-78
2023/11/11 11:51:10;;;;;;;5.00;4.90;;;11.40;99.90;;;;;;5018142;28;20579;-78
2023/11/11 11:53:42;;;;;;;5.80;5.60;;;11.50;99.90;;;;;;5016322;28;20476;-80
2023/11/11 11:56:13;;;;;;;5.70;5.50;;;11.70;99.90;;;;;;5015757;28;20860;-78
2023/11/11 11:58:50;;;;;;;5.60;5.40;;;11.50;99.90;;;;;;5015105;28;20488;-78
2023/11/11 12:01:26;;;;;;;5.47;5.33;;;11.60;99.90;;;;;;5019862;28;20755;-79
2023/11/11 12:06:50;;;;;;;5.23;5.03;;;11.80;99.90;;;;;;5420999;23;20524;-81
2023/11/11 12:09:20;;;;;;;4.67;4.57;;;11.80;99.90;;;;;;4918377;29;20462;-81
2023/11/11 12:11:48;;;;;;;4.93;4.70;;;11.80;98.10;;;;;;4921801;29;20466;-81
2023/11/11 12:14:17;;;;;;;4.73;4.63;;;11.90;99.70;;;;;;4927179;29;20457;-80
2023/11/11 12:16:47;;;;;;;4.70;4.60;;;11.80;99.70;;;;;;4921030;29;20477;-81
2023/11/11 12:19:18;;;;;;;4.60;4.30;;;11.70;97.00;;;;;;4923583;29;20827;-82
2023/11/11 12:21:49;;;;;;;5.33;5.00;;;11.60;97.60;;;;;;4924344;29;20487;-81
2023/11/11 12:24:18;;;;;;;4.70;4.60;;;11.40;99.90;;;;;;4927280;29;20524;-81
2023/11/11 12:26:48;;;;;;;5.00;4.70;;;11.20;96.50;;;;;;4921305;29;20493;-82
2023/11/11 12:29:16;;;;;;;5.00;4.80;;;11.30;96.50;;;;;;4930471;29;20457;-80
2023/11/11 12:31:46;;;;;;;4.77;4.30;;;11.50;99.10;;;;;;4923880;29;20453;-83
2023/11/11 12:34:16;;;;;;;4.37;4.10;;;11.50;97.20;;;;;;4925648;29;20446;-82
2023/11/11 12:36:44;;;;;;;4.40;4.30;;;11.60;97.00;;;;;;4930178;28;21010;-82
2023/11/11 12:39:14;;;;;;;4.83;4.73;;;11.70;97.50;;;;;;4923895;29;20886;-83
2023/11/11 12:41:51;;;;;;;5.00;4.90;;;11.70;96.70;;;;;;4928152;29;20486;-85
2023/11/11 12:44:23;;;;;;;5.10;4.90;;;11.80;96.70;;;;;;4930348;29;20581;-81
2023/11/11 12:46:51;;;;;;;4.73;4.50;;;11.90;97.30;;;;;;4936809;29;20482;-79
2023/11/11 12:49:24;;;;;;;4.73;4.63;;;12.00;96.80;;;;;;4935671;29;20530;-81
2023/11/11 12:51:55;;;;;;;4.67;4.47;;;12.00;95.80;;;;;;4937188;29;20461;-80
2023/11/11 12:54:31;;;;;;;4.50;4.40;;;12.10;96.30;;;;;;4930483;29;20955;-80
2023/11/11 12:57:01;;;;;;;4.73;4.53;;;12.10;96.90;;;;;;4930794;29;20504;-81
2023/11/11 12:59:30;;;;;;;4.73;4.63;;;12.10;96.90;;;;;;4933031;29;20715;-80
2023/11/11 13:02:00;;;;;;;5.20;5.10;;;12.10;97.20;;;;;;4929724;29;20495;-79
2023/11/11 13:04:30;;;;;;;5.23;5.03;;;12.00;96.90;;;;;;4931644;29;20512;-80
2023/11/11 13:07:00;;;;;;;5.23;5.03;;;11.90;96.80;;;;;;4928447;29;20486;-82
2023/11/11 13:09:40;;;;;;;5.00;4.90;;;11.90;96.80;;;;;;4924658;29;20466;-81
2023/11/11 13:12:10;;;;;;;4.70;4.60;;;11.70;94.20;;;;;;4925741;29;20460;-80